Albert City, Iowa
Current Conditions -  °F | °C
As of 1:15 PM on Friday 28 Nov 2014 (Local Time) from KSLB Reporting Station
Clear Clear  
Wind Chill: -3°   Ceiling: Unl
Heat Index:   Visibility: 9mi
Dew Point: -2°   Wind: 8mph
Humidity: 81%   Direction: 120°ESE
Pressure: 29.75"   Gusts: NA
Location:  42.78°N, 94.95°W
Report Text: KSLB 281915Z AUTO 12007KT 9SM CLR 01/M02 A2975 RMK AO2
Loading
Personal Weather Stations






























Interactive Weather Map New forecast layout! Learn more

10-Day Weather Forecast

Advertisements
Track Severe Weather on mobile